Summertown, Georgia
Current Conditions -  °F | °C
As of 5:15 PM on Monday 26 Jan 2015 (Local Time) from KSBO Reporting Station
Broken Clouds Broken Clouds  
Wind Chill: 50°   Ceiling: 3800
Heat Index: 50°   Visibility: 10mi
Dew Point: 28°   Wind: 15mph
Humidity: 43%   Direction: 300°WNW
Pressure: 29.8"   Gusts: 25mph
Location:  32.75°N, 82.28°W
Report Text: KSBO 262215Z AUTO 30013G22KT 10SM BKN038 10/M02 A2980 RMK AO2 LTG DSNT E
Loading
Personal Weather Stations






























Interactive Weather Map New forecast layout! Learn more

10-Day Weather Forecast

Advertisements
Track Severe Weather on mobile